Kincheloe, MI (49784)

5:22 AM EDT on August 30, 2014 (GMT -0400)
Chippewa County International | Change Station
CLOSE
Current Station
Airport
Location: Chippewa,
Elevation: 801 ft
Nearby Weather Stations

Elev 801 ft 46.25 °N, 84.48 °W | Updated 7 minutes ago

Overcast
Overcast
66 °F
Feels Like 66 °F
N
7
Wind Variable Wind from SE

Today
High -- | Low -- °F
--% Chance of Precip.
Yesterday
High -- | Low -- °F
Precip. -- in
6:55 AM 8:19 PM
Waxing Crescent, 20% visible
Pressure 29.82 in
Visibility 8.0 miles
Clouds Overcast 1800 ft
Dew Point 66 °F
Humidity 100%
Rainfall 0.22 in
Snow Depth Not available.
UV 0 out of 12
Pollen 7.20 out of 12
Ozone Good
PM2.5 Moderate
Flu Activity Not available.
METAR KCIU 300915Z AUTO 13006KT 8SM OVC018 19/19 A2982 RMK AO1

More Conditions Fewer Conditions

Pressure 29.82 in
Visibility 8.0 miles
Clouds Overcast 1800 ft
Dew Point 66 °F
Humidity 100%
Rainfall 0.22 in
Snow Depth Not available.
UV 0 out of 12
Pollen 7.20 out of 12
Ozone Good
PM2.5 Moderate
Flu Activity Not available.
METAR KCIU 300915Z AUTO 13006KT 8SM OVC018 19/19 A2982 RMK AO1

More Conditions Fewer Conditions

Nowcast | as of 5:00 am EDT on August 30, 2014

At 6 am...periods of rain showers and isolated thunderstorms. Temperature 64. South winds 5 mph. At 8 am...periods of rain showers and scattered thunderstorms. Temperature 63. South winds 5 mph. At 10 am...periods of rain showers and scattered thunderstorms. Temperature 65. Southeast winds 5 mph. At 12 PM...periods of rain showers and scattered thunderstorms. Temperature 67. Southeast winds 6 mph.

×

10-Day Weather Forecast

Almanac

Astronomy

Aug. 30, 2014 Rise Set
Actual Time 6:55 AM EDT 8:19 PM EDT
Civil Twilight 6:24 AM EDT 8:51 PM EDT
Nautical Twilight 5:46 AM EDT 9:28 PM EDT
Astronomical Twilight 5:05 AM EDT 10:09 PM EDT
Moon 12:00 PM EDT 10:34 PM EDT
Length of Visible Light 14h 26m
Length of Day
13h 24m
Tomorrow will be 3m 9s shorter.
Waxing Crescent, 20% of the Moon is Illuminated
Today
Waxing Crescent
Sep 2
First Quarter
Sep 8
Full
Sep 15
Last Quarter
Sep 24
New

Today's Extremes

State Highs State Lows

Community

WunderPhotos

Upload Photos

1,748,475 photos uploaded!

Nearby

Air Quality

  Air Quality AQ Index Pollutant
Yesterday Good
PM2.5
Yesterday Good
OZONE
Current Moderate
PM2.5
Current Good
OZONE
Saturday Good
OZONE
Saturday Good
PM2.5
Sunday Good
OZONE
Sunday Good
PM2.5
Monday Good
OZONE
Monday Good
PM2.5
Tuesday Good
OZONE
Tuesday Good
PM2.5

Snow Depth

Station Depth Elevation
No new snow has been reported.

Earthquake Activity

City Distance Mag. Time & Date
No recent earthquake activity has been reported nearby.
Minimum magnitude displayed is 2.5.

Coastal Water Temperatures

Place Temperature
De Tour Village, MI 60.1 °F
Rock Cut, MI 61.0 °F
Little Rapids, MI 59.0 °F
S W Pier, MI 61.0 °F
West Neebish, MI 59.0 °F

Nearby Weather Stations